X  Schlie├čen METAR Luftfahrt Wetterdaten     EDVE Braunschweig-Wolfsburg Airport
Temperatur
-6°C Temperatur
-6°C Taupunkt
100% Feuchtigkeit



Wind
3 KM/S
2 MPS
1 M/S
2 KTS



Kein Wind
N
Aktuelle Wetterlage

Klar Klar
Luftdruck 1040.91 (hPa) - 30.74 (inHg)
Sichtweite 3.7 (Meile) - 6 (Km)
Flughafen
Flughafen Code EDVE

Position : Braunschweig-Wolfsburg Airport
Entfernung: 35 (Km)

Metar:
EDVE 070720Z VRB02KT 6000 NSC M06/M06 Q1041

Zeit: 07-02-2023 08:20 CET